sensor_id;sensor_type;location;lat;lon;timestamp;P1;durP1;ratioP1;P2;durP2;ratioP2
78783;SDS011;68127;51.050;14.084;2024-01-15T00:01:01;11.18;;;5.25;;
78783;SDS011;68127;51.050;14.084;2024-01-15T00:03:27;13.25;;;5.65;;
78783;SDS011;68127;51.050;14.084;2024-01-15T00:05:52;11.45;;;5.32;;
78783;SDS011;68127;51.050;14.084;2024-01-15T00:08:17;11.98;;;5.70;;
78783;SDS011;68127;51.050;14.084;2024-01-15T00:10:43;12.90;;;5.80;;
78783;SDS011;68127;51.050;14.084;2024-01-15T00:13:08;12.93;;;5.50;;
78783;SDS011;68127;51.050;14.084;2024-01-15T00:15:33;14.70;;;6.10;;
78783;SDS011;68127;51.050;14.084;2024-01-15T00:17:58;11.68;;;4.80;;
78783;SDS011;68127;51.050;14.084;2024-01-15T00:20:24;10.73;;;5.88;;
78783;SDS011;68127;51.050;14.084;2024-01-15T00:22:49;12.48;;;5.15;;
78783;SDS011;68127;51.050;14.084;2024-01-15T00:25:14;11.32;;;5.70;;
78783;SDS011;68127;51.050;14.084;2024-01-15T00:27:39;12.43;;;5.57;;
78783;SDS011;68127;51.050;14.084;2024-01-15T00:30:05;10.00;;;4.82;;
78783;SDS011;68127;51.050;14.084;2024-01-15T00:32:31;12.95;;;5.53;;
78783;SDS011;68127;51.050;14.084;2024-01-15T00:34:56;12.75;;;5.30;;
78783;SDS011;68127;51.050;14.084;2024-01-15T00:37:21;10.55;;;5.90;;
78783;SDS011;68127;51.050;14.084;2024-01-15T00:39:47;11.38;;;5.35;;
78783;SDS011;68127;51.050;14.084;2024-01-15T00:42:12;11.82;;;5.43;;
78783;SDS011;68127;51.050;14.084;2024-01-15T00:44:37;10.55;;;5.10;;
78783;SDS011;68127;51.050;14.084;2024-01-15T00:47:02;11.38;;;5.28;;
78783;SDS011;68127;51.050;14.084;2024-01-15T00:49:28;12.15;;;5.65;;
78783;SDS011;68127;51.050;14.084;2024-01-15T00:51:53;13.20;;;5.68;;
78783;SDS011;68127;51.050;14.084;2024-01-15T00:54:19;10.90;;;5.07;;
78783;SDS011;68127;51.050;14.084;2024-01-15T00:56:44;13.85;;;5.65;;
78783;SDS011;68127;51.050;14.084;2024-01-15T00:59:09;13.65;;;6.45;;
78783;SDS011;68127;51.050;14.084;2024-01-15T01:01:35;13.95;;;5.82;;
78783;SDS011;68127;51.050;14.084;2024-01-15T01:04:01;10.13;;;5.10;;
78783;SDS011;68127;51.050;14.084;2024-01-15T01:06:26;15.70;;;6.28;;
78783;SDS011;68127;51.050;14.084;2024-01-15T01:08:51;12.77;;;6.30;;
78783;SDS011;68127;51.050;14.084;2024-01-15T01:11:17;11.02;;;5.32;;
78783;SDS011;68127;51.050;14.084;2024-01-15T01:13:42;10.27;;;5.25;;
78783;SDS011;68127;51.050;14.084;2024-01-15T01:16:07;11.27;;;5.40;;
78783;SDS011;68127;51.050;14.084;2024-01-15T01:18:33;12.13;;;5.55;;
78783;SDS011;68127;51.050;14.084;2024-01-15T01:20:58;9.93;;;5.90;;
78783;SDS011;68127;51.050;14.084;2024-01-15T01:23:23;12.20;;;6.15;;
78783;SDS011;68127;51.050;14.084;2024-01-15T01:25:48;9.15;;;4.97;;
78783;SDS011;68127;51.050;14.084;2024-01-15T01:28:14;12.50;;;5.50;;
78783;SDS011;68127;51.050;14.084;2024-01-15T01:30:39;10.82;;;5.68;;
78783;SDS011;68127;51.050;14.084;2024-01-15T01:33:05;12.77;;;5.40;;
78783;SDS011;68127;51.050;14.084;2024-01-15T01:35:30;11.55;;;5.22;;
78783;SDS011;68127;51.050;14.084;2024-01-15T01:37:55;9.52;;;4.93;;
78783;SDS011;68127;51.050;14.084;2024-01-15T01:40:20;13.77;;;5.60;;
78783;SDS011;68127;51.050;14.084;2024-01-15T01:42:46;12.48;;;5.82;;
78783;SDS011;68127;51.050;14.084;2024-01-15T01:45:11;12.55;;;6.20;;
78783;SDS011;68127;51.050;14.084;2024-01-15T01:47:37;11.88;;;5.05;;
78783;SDS011;68127;51.050;14.084;2024-01-15T01:50:03;10.40;;;5.38;;
78783;SDS011;68127;51.050;14.084;2024-01-15T01:52:28;11.80;;;5.60;;
78783;SDS011;68127;51.050;14.084;2024-01-15T01:54:53;13.55;;;6.40;;
78783;SDS011;68127;51.050;14.084;2024-01-15T01:57:19;12.15;;;6.25;;
78783;SDS011;68127;51.050;14.084;2024-01-15T01:59:44;15.10;;;6.60;;
78783;SDS011;68127;51.050;14.084;2024-01-15T02:02:10;10.05;;;5.22;;
78783;SDS011;68127;51.050;14.084;2024-01-15T02:04:36;12.65;;;6.32;;
78783;SDS011;68127;51.050;14.084;2024-01-15T02:07:01;15.38;;;7.07;;
78783;SDS011;68127;51.050;14.084;2024-01-15T02:09:27;14.27;;;6.20;;
78783;SDS011;68127;51.050;14.084;2024-01-15T02:11:52;14.18;;;5.75;;
78783;SDS011;68127;51.050;14.084;2024-01-15T02:14:18;12.23;;;5.88;;
78783;SDS011;68127;51.050;14.084;2024-01-15T02:16:43;12.52;;;5.90;;
78783;SDS011;68127;51.050;14.084;2024-01-15T02:19:14;12.43;;;6.28;;
78783;SDS011;68127;51.050;14.084;2024-01-15T02:21:42;11.05;;;5.40;;
78783;SDS011;68127;51.050;14.084;2024-01-15T02:24:08;11.85;;;5.28;;
78783;SDS011;68127;51.050;14.084;2024-01-15T02:26:33;13.35;;;5.80;;
78783;SDS011;68127;51.050;14.084;2024-01-15T02:29:00;9.38;;;4.32;;
78783;SDS011;68127;51.050;14.084;2024-01-15T02:31:26;12.30;;;5.55;;
78783;SDS011;68127;51.050;14.084;2024-01-15T02:33:51;13.25;;;5.95;;
78783;SDS011;68127;51.050;14.084;2024-01-15T02:36:17;13.00;;;5.95;;
78783;SDS011;68127;51.050;14.084;2024-01-15T02:38:42;14.82;;;5.38;;
78783;SDS011;68127;51.050;14.084;2024-01-15T02:41:07;12.98;;;6.88;;
78783;SDS011;68127;51.050;14.084;2024-01-15T02:43:32;13.02;;;5.95;;
78783;SDS011;68127;51.050;14.084;2024-01-15T02:45:58;13.05;;;5.72;;
78783;SDS011;68127;51.050;14.084;2024-01-15T02:48:23;13.45;;;6.15;;
78783;SDS011;68127;51.050;14.084;2024-01-15T02:50:48;12.00;;;6.13;;
78783;SDS011;68127;51.050;14.084;2024-01-15T02:53:13;13.13;;;6.35;;
78783;SDS011;68127;51.050;14.084;2024-01-15T02:55:39;11.70;;;6.30;;
78783;SDS011;68127;51.050;14.084;2024-01-15T02:58:04;13.98;;;6.40;;
78783;SDS011;68127;51.050;14.084;2024-01-15T03:00:30;15.48;;;6.28;;
78783;SDS011;68127;51.050;14.084;2024-01-15T03:02:55;13.75;;;5.30;;
78783;SDS011;68127;51.050;14.084;2024-01-15T03:05:20;14.65;;;6.63;;
78783;SDS011;68127;51.050;14.084;2024-01-15T03:07:45;14.38;;;6.55;;
78783;SDS011;68127;51.050;14.084;2024-01-15T03:10:11;15.80;;;7.28;;
78783;SDS011;68127;51.050;14.084;2024-01-15T03:12:36;12.95;;;6.50;;
78783;SDS011;68127;51.050;14.084;2024-01-15T03:15:01;14.05;;;6.95;;
78783;SDS011;68127;51.050;14.084;2024-01-15T03:17:27;13.23;;;6.03;;
78783;SDS011;68127;51.050;14.084;2024-01-15T03:19:52;14.13;;;5.95;;
78783;SDS011;68127;51.050;14.084;2024-01-15T03:22:18;12.50;;;6.25;;
78783;SDS011;68127;51.050;14.084;2024-01-15T03:24:43;12.57;;;6.00;;
78783;SDS011;68127;51.050;14.084;2024-01-15T03:27:09;14.32;;;5.90;;
78783;SDS011;68127;51.050;14.084;2024-01-15T03:29:34;14.48;;;6.22;;
78783;SDS011;68127;51.050;14.084;2024-01-15T03:31:59;14.25;;;6.80;;
78783;SDS011;68127;51.050;14.084;2024-01-15T03:34:24;11.27;;;5.68;;
78783;SDS011;68127;51.050;14.084;2024-01-15T03:36:50;12.25;;;6.22;;
78783;SDS011;68127;51.050;14.084;2024-01-15T03:39:15;12.75;;;5.22;;
78783;SDS011;68127;51.050;14.084;2024-01-15T03:41:40;13.73;;;5.93;;
78783;SDS011;68127;51.050;14.084;2024-01-15T03:44:06;12.73;;;6.43;;
78783;SDS011;68127;51.050;14.084;2024-01-15T03:46:31;11.85;;;6.28;;
78783;SDS011;68127;51.050;14.084;2024-01-15T03:48:56;13.60;;;6.55;;
78783;SDS011;68127;51.050;14.084;2024-01-15T03:51:21;13.63;;;6.20;;
78783;SDS011;68127;51.050;14.084;2024-01-15T03:53:47;12.65;;;6.00;;
78783;SDS011;68127;51.050;14.084;2024-01-15T03:56:13;12.65;;;5.85;;
78783;SDS011;68127;51.050;14.084;2024-01-15T03:58:38;11.40;;;5.78;;
78783;SDS011;68127;51.050;14.084;2024-01-15T04:01:03;14.05;;;6.25;;
78783;SDS011;68127;51.050;14.084;2024-01-15T04:03:28;13.30;;;6.32;;
78783;SDS011;68127;51.050;14.084;2024-01-15T04:05:54;13.25;;;6.50;;
78783;SDS011;68127;51.050;14.084;2024-01-15T04:08:19;19.55;;;8.30;;
78783;SDS011;68127;51.050;14.084;2024-01-15T04:10:44;19.15;;;7.30;;
78783;SDS011;68127;51.050;14.084;2024-01-15T04:13:09;14.05;;;6.15;;
78783;SDS011;68127;51.050;14.084;2024-01-15T04:15:35;14.85;;;7.22;;
78783;SDS011;68127;51.050;14.084;2024-01-15T04:18:01;14.23;;;7.10;;
78783;SDS011;68127;51.050;14.084;2024-01-15T04:20:27;15.95;;;7.50;;
78783;SDS011;68127;51.050;14.084;2024-01-15T04:22:52;17.23;;;7.43;;
78783;SDS011;68127;51.050;14.084;2024-01-15T04:25:17;17.92;;;7.60;;
78783;SDS011;68127;51.050;14.084;2024-01-15T04:27:43;16.17;;;6.80;;
78783;SDS011;68127;51.050;14.084;2024-01-15T04:30:08;16.10;;;7.45;;
78783;SDS011;68127;51.050;14.084;2024-01-15T04:32:34;17.05;;;8.20;;
78783;SDS011;68127;51.050;14.084;2024-01-15T04:34:59;16.65;;;7.55;;
78783;SDS011;68127;51.050;14.084;2024-01-15T04:37:24;14.85;;;6.28;;
78783;SDS011;68127;51.050;14.084;2024-01-15T04:39:49;15.40;;;7.47;;
78783;SDS011;68127;51.050;14.084;2024-01-15T04:42:17;16.42;;;7.35;;
78783;SDS011;68127;51.050;14.084;2024-01-15T04:44:43;14.23;;;6.88;;
78783;SDS011;68127;51.050;14.084;2024-01-15T04:47:08;18.15;;;8.48;;
78783;SDS011;68127;51.050;14.084;2024-01-15T04:49:33;15.98;;;7.07;;
78783;SDS011;68127;51.050;14.084;2024-01-15T04:51:58;15.30;;;6.95;;
78783;SDS011;68127;51.050;14.084;2024-01-15T04:54:24;18.13;;;6.70;;
78783;SDS011;68127;51.050;14.084;2024-01-15T04:56:49;17.90;;;7.63;;
78783;SDS011;68127;51.050;14.084;2024-01-15T04:59:14;16.08;;;7.43;;
78783;SDS011;68127;51.050;14.084;2024-01-15T05:01:40;15.13;;;6.95;;
78783;SDS011;68127;51.050;14.084;2024-01-15T05:04:05;15.68;;;6.50;;
78783;SDS011;68127;51.050;14.084;2024-01-15T05:06:30;16.40;;;8.10;;
78783;SDS011;68127;51.050;14.084;2024-01-15T05:08:55;16.52;;;6.60;;
78783;SDS011;68127;51.050;14.084;2024-01-15T05:11:21;14.02;;;6.32;;
78783;SDS011;68127;51.050;14.084;2024-01-15T05:13:46;15.35;;;7.00;;
78783;SDS011;68127;51.050;14.084;2024-01-15T05:16:11;12.65;;;5.63;;
78783;SDS011;68127;51.050;14.084;2024-01-15T05:18:36;16.15;;;6.95;;
78783;SDS011;68127;51.050;14.084;2024-01-15T05:21:02;15.70;;;6.57;;
78783;SDS011;68127;51.050;14.084;2024-01-15T05:23:28;16.10;;;7.30;;
78783;SDS011;68127;51.050;14.084;2024-01-15T05:25:53;13.15;;;6.10;;
78783;SDS011;68127;51.050;14.084;2024-01-15T05:28:18;12.75;;;6.47;;
78783;SDS011;68127;51.050;14.084;2024-01-15T05:30:44;14.38;;;6.68;;
78783;SDS011;68127;51.050;14.084;2024-01-15T05:33:09;15.30;;;6.72;;
78783;SDS011;68127;51.050;14.084;2024-01-15T05:35:34;14.43;;;6.65;;
78783;SDS011;68127;51.050;14.084;2024-01-15T05:37:59;14.82;;;6.72;;
78783;SDS011;68127;51.050;14.084;2024-01-15T05:40:25;15.13;;;6.90;;
78783;SDS011;68127;51.050;14.084;2024-01-15T05:42:50;14.55;;;6.45;;
78783;SDS011;68127;51.050;14.084;2024-01-15T05:45:15;16.73;;;7.60;;
78783;SDS011;68127;51.050;14.084;2024-01-15T05:47:41;16.00;;;7.15;;
78783;SDS011;68127;51.050;14.084;2024-01-15T05:50:06;18.80;;;7.53;;
78783;SDS011;68127;51.050;14.084;2024-01-15T05:52:31;15.32;;;6.72;;
78783;SDS011;68127;51.050;14.084;2024-01-15T05:54:57;15.40;;;6.80;;
78783;SDS011;68127;51.050;14.084;2024-01-15T05:57:22;13.18;;;7.20;;
78783;SDS011;68127;51.050;14.084;2024-01-15T05:59:47;15.55;;;6.85;;
78783;SDS011;68127;51.050;14.084;2024-01-15T06:02:13;14.77;;;6.97;;
78783;SDS011;68127;51.050;14.084;2024-01-15T06:04:38;18.75;;;7.63;;
78783;SDS011;68127;51.050;14.084;2024-01-15T06:07:03;15.23;;;6.47;;
78783;SDS011;68127;51.050;14.084;2024-01-15T06:09:28;17.25;;;7.78;;
78783;SDS011;68127;51.050;14.084;2024-01-15T06:11:54;12.55;;;6.43;;
78783;SDS011;68127;51.050;14.084;2024-01-15T06:14:20;18.63;;;7.55;;
78783;SDS011;68127;51.050;14.084;2024-01-15T06:16:45;15.00;;;6.72;;
78783;SDS011;68127;51.050;14.084;2024-01-15T06:19:10;16.65;;;6.80;;
78783;SDS011;68127;51.050;14.084;2024-01-15T06:21:36;15.75;;;6.47;;
78783;SDS011;68127;51.050;14.084;2024-01-15T06:24:01;15.63;;;7.38;;
78783;SDS011;68127;51.050;14.084;2024-01-15T06:26:26;15.75;;;7.30;;
78783;SDS011;68127;51.050;14.084;2024-01-15T06:28:52;16.13;;;6.95;;
78783;SDS011;68127;51.050;14.084;2024-01-15T06:31:17;15.52;;;6.22;;
78783;SDS011;68127;51.050;14.084;2024-01-15T06:33:42;15.00;;;6.32;;
78783;SDS011;68127;51.050;14.084;2024-01-15T06:36:07;15.18;;;6.43;;
78783;SDS011;68127;51.050;14.084;2024-01-15T06:38:33;15.40;;;6.82;;
78783;SDS011;68127;51.050;14.084;2024-01-15T06:40:59;15.43;;;6.85;;
78783;SDS011;68127;51.050;14.084;2024-01-15T06:43:24;11.10;;;5.32;;
78783;SDS011;68127;51.050;14.084;2024-01-15T06:45:49;13.70;;;6.15;;
78783;SDS011;68127;51.050;14.084;2024-01-15T06:48:15;14.60;;;5.95;;
78783;SDS011;68127;51.050;14.084;2024-01-15T06:50:41;14.30;;;5.63;;
78783;SDS011;68127;51.050;14.084;2024-01-15T06:53:07;13.07;;;5.63;;
78783;SDS011;68127;51.050;14.084;2024-01-15T06:55:32;14.55;;;5.47;;
78783;SDS011;68127;51.050;14.084;2024-01-15T06:57:57;13.52;;;5.50;;
78783;SDS011;68127;51.050;14.084;2024-01-15T07:00:22;13.20;;;5.30;;
78783;SDS011;68127;51.050;14.084;2024-01-15T07:02:48;11.13;;;5.43;;
78783;SDS011;68127;51.050;14.084;2024-01-15T07:05:13;12.38;;;6.00;;
78783;SDS011;68127;51.050;14.084;2024-01-15T07:07:38;12.73;;;5.95;;
78783;SDS011;68127;51.050;14.084;2024-01-15T07:10:04;13.30;;;5.65;;
78783;SDS011;68127;51.050;14.084;2024-01-15T07:12:31;13.18;;;5.18;;
78783;SDS011;68127;51.050;14.084;2024-01-15T07:14:57;15.38;;;6.20;;
78783;SDS011;68127;51.050;14.084;2024-01-15T07:17:22;12.88;;;4.20;;
78783;SDS011;68127;51.050;14.084;2024-01-15T07:19:48;19.45;;;6.10;;
78783;SDS011;68127;51.050;14.084;2024-01-15T07:22:16;10.27;;;5.20;;
78783;SDS011;68127;51.050;14.084;2024-01-15T07:24:51;13.23;;;5.63;;
78783;SDS011;68127;51.050;14.084;2024-01-15T07:27:16;12.25;;;4.82;;
78783;SDS011;68127;51.050;14.084;2024-01-15T07:29:41;10.60;;;4.85;;
78783;SDS011;68127;51.050;14.084;2024-01-15T07:32:10;14.27;;;5.50;;
78783;SDS011;68127;51.050;14.084;2024-01-15T07:34:35;12.20;;;5.30;;
78783;SDS011;68127;51.050;14.084;2024-01-15T07:37:00;13.00;;;5.55;;
78783;SDS011;68127;51.050;14.084;2024-01-15T07:39:26;12.85;;;5.13;;
78783;SDS011;68127;51.050;14.084;2024-01-15T07:41:51;13.50;;;5.32;;
78783;SDS011;68127;51.050;14.084;2024-01-15T07:44:17;11.27;;;5.65;;
78783;SDS011;68127;51.050;14.084;2024-01-15T07:46:45;13.13;;;5.85;;
78783;SDS011;68127;51.050;14.084;2024-01-15T07:49:11;13.18;;;4.70;;
78783;SDS011;68127;51.050;14.084;2024-01-15T07:51:37;16.60;;;7.38;;
78783;SDS011;68127;51.050;14.084;2024-01-15T07:54:02;11.57;;;4.28;;
78783;SDS011;68127;51.050;14.084;2024-01-15T07:56:27;12.57;;;5.30;;
78783;SDS011;68127;51.050;14.084;2024-01-15T07:58:52;9.50;;;4.32;;
78783;SDS011;68127;51.050;14.084;2024-01-15T08:01:18;10.52;;;5.25;;
78783;SDS011;68127;51.050;14.084;2024-01-15T08:03:43;9.10;;;3.78;;
78783;SDS011;68127;51.050;14.084;2024-01-15T08:06:08;11.90;;;5.30;;
78783;SDS011;68127;51.050;14.084;2024-01-15T08:08:34;11.23;;;5.47;;
78783;SDS011;68127;51.050;14.084;2024-01-15T08:11:00;9.98;;;4.53;;
78783;SDS011;68127;51.050;14.084;2024-01-15T08:13:26;10.25;;;4.57;;
78783;SDS011;68127;51.050;14.084;2024-01-15T08:15:51;10.40;;;4.43;;
78783;SDS011;68127;51.050;14.084;2024-01-15T08:18:17;10.85;;;5.20;;
78783;SDS011;68127;51.050;14.084;2024-01-15T08:20:42;14.15;;;5.65;;
78783;SDS011;68127;51.050;14.084;2024-01-15T08:23:07;10.82;;;4.85;;
78783;SDS011;68127;51.050;14.084;2024-01-15T08:25:33;11.55;;;4.60;;
78783;SDS011;68127;51.050;14.084;2024-01-15T08:27:58;12.80;;;5.15;;
78783;SDS011;68127;51.050;14.084;2024-01-15T08:30:23;10.10;;;4.28;;
78783;SDS011;68127;51.050;14.084;2024-01-15T08:32:53;10.30;;;4.80;;
78783;SDS011;68127;51.050;14.084;2024-01-15T08:35:18;11.00;;;4.97;;
78783;SDS011;68127;51.050;14.084;2024-01-15T08:37:54;13.00;;;4.86;;
78783;SDS011;68127;51.050;14.084;2024-01-15T08:40:19;11.10;;;5.38;;
78783;SDS011;68127;51.050;14.084;2024-01-15T08:42:44;13.93;;;5.90;;
78783;SDS011;68127;51.050;14.084;2024-01-15T08:45:10;13.20;;;5.68;;
78783;SDS011;68127;51.050;14.084;2024-01-15T08:47:36;11.32;;;4.75;;
78783;SDS011;68127;51.050;14.084;2024-01-15T08:50:01;9.82;;;5.07;;
78783;SDS011;68127;51.050;14.084;2024-01-15T08:52:28;11.05;;;4.72;;
78783;SDS011;68127;51.050;14.084;2024-01-15T08:54:53;8.68;;;4.38;;
78783;SDS011;68127;51.050;14.084;2024-01-15T08:57:19;8.77;;;4.65;;
78783;SDS011;68127;51.050;14.084;2024-01-15T08:59:44;10.85;;;5.00;;
78783;SDS011;68127;51.050;14.084;2024-01-15T09:02:10;13.10;;;5.15;;
78783;SDS011;68127;51.050;14.084;2024-01-15T09:04:35;10.70;;;4.30;;
78783;SDS011;68127;51.050;14.084;2024-01-15T09:07:00;10.52;;;4.65;;
78783;SDS011;68127;51.050;14.084;2024-01-15T09:09:27;9.60;;;4.30;;
78783;SDS011;68127;51.050;14.084;2024-01-15T09:11:52;8.45;;;4.15;;
78783;SDS011;68127;51.050;14.084;2024-01-15T09:14:17;9.88;;;4.28;;
78783;SDS011;68127;51.050;14.084;2024-01-15T09:16:43;12.23;;;5.03;;
78783;SDS011;68127;51.050;14.084;2024-01-15T09:19:08;10.98;;;4.40;;
78783;SDS011;68127;51.050;14.084;2024-01-15T09:21:33;10.18;;;4.00;;
78783;SDS011;68127;51.050;14.084;2024-01-15T09:23:59;14.48;;;5.10;;
78783;SDS011;68127;51.050;14.084;2024-01-15T09:26:24;11.80;;;4.47;;
78783;SDS011;68127;51.050;14.084;2024-01-15T09:28:49;12.07;;;4.88;;
78783;SDS011;68127;51.050;14.084;2024-01-15T09:31:14;8.82;;;4.43;;
78783;SDS011;68127;51.050;14.084;2024-01-15T09:33:42;10.68;;;4.78;;
78783;SDS011;68127;51.050;14.084;2024-01-15T09:36:07;9.68;;;4.32;;
78783;SDS011;68127;51.050;14.084;2024-01-15T09:38:33;9.52;;;3.83;;
78783;SDS011;68127;51.050;14.084;2024-01-15T09:40:58;11.43;;;4.53;;
78783;SDS011;68127;51.050;14.084;2024-01-15T09:43:23;12.00;;;4.88;;
78783;SDS011;68127;51.050;14.084;2024-01-15T09:45:49;13.00;;;5.35;;
78783;SDS011;68127;51.050;14.084;2024-01-15T09:48:15;10.98;;;5.15;;
78783;SDS011;68127;51.050;14.084;2024-01-15T09:50:40;10.77;;;4.55;;
78783;SDS011;68127;51.050;14.084;2024-01-15T09:53:05;8.70;;;3.92;;
78783;SDS011;68127;51.050;14.084;2024-01-15T09:55:31;10.95;;;4.82;;
78783;SDS011;68127;51.050;14.084;2024-01-15T09:57:57;10.18;;;4.95;;
78783;SDS011;68127;51.050;14.084;2024-01-15T10:00:24;11.95;;;5.63;;
78783;SDS011;68127;51.050;14.084;2024-01-15T10:02:51;16.45;;;6.85;;
78783;SDS011;68127;51.050;14.084;2024-01-15T10:05:16;16.58;;;5.95;;
78783;SDS011;68127;51.050;14.084;2024-01-15T10:07:41;13.10;;;5.07;;
78783;SDS011;68127;51.050;14.084;2024-01-15T10:10:07;15.18;;;5.18;;
78783;SDS011;68127;51.050;14.084;2024-01-15T10:12:32;10.43;;;5.05;;
78783;SDS011;68127;51.050;14.084;2024-01-15T10:14:58;10.13;;;4.78;;
78783;SDS011;68127;51.050;14.084;2024-01-15T10:17:23;8.07;;;3.90;;
78783;SDS011;68127;51.050;14.084;2024-01-15T10:19:49;9.38;;;3.70;;
78783;SDS011;68127;51.050;14.084;2024-01-15T10:22:14;11.77;;;3.83;;
78783;SDS011;68127;51.050;14.084;2024-01-15T10:24:40;8.98;;;4.38;;
78783;SDS011;68127;51.050;14.084;2024-01-15T10:27:06;9.57;;;3.72;;
78783;SDS011;68127;51.050;14.084;2024-01-15T10:29:35;9.05;;;3.83;;
78783;SDS011;68127;51.050;14.084;2024-01-15T10:32:01;7.65;;;3.67;;
78783;SDS011;68127;51.050;14.084;2024-01-15T10:34:27;8.52;;;3.65;;
78783;SDS011;68127;51.050;14.084;2024-01-15T10:36:52;8.88;;;3.92;;
78783;SDS011;68127;51.050;14.084;2024-01-15T10:39:23;7.93;;;3.25;;
78783;SDS011;68127;51.050;14.084;2024-01-15T10:41:49;7.72;;;3.47;;
78783;SDS011;68127;51.050;14.084;2024-01-15T10:44:15;7.82;;;3.65;;
78783;SDS011;68127;51.050;14.084;2024-01-15T10:46:41;8.93;;;3.55;;
78783;SDS011;68127;51.050;14.084;2024-01-15T10:49:08;8.60;;;3.50;;
78783;SDS011;68127;51.050;14.084;2024-01-15T10:51:33;10.65;;;3.33;;
78783;SDS011;68127;51.050;14.084;2024-01-15T10:53:59;6.88;;;3.47;;
78783;SDS011;68127;51.050;14.084;2024-01-15T10:56:25;9.15;;;3.17;;
78783;SDS011;68127;51.050;14.084;2024-01-15T10:58:52;8.32;;;3.50;;
78783;SDS011;68127;51.050;14.084;2024-01-15T11:01:19;8.85;;;3.65;;
78783;SDS011;68127;51.050;14.084;2024-01-15T11:03:44;7.55;;;3.42;;
78783;SDS011;68127;51.050;14.084;2024-01-15T11:06:19;20.55;;;7.22;;
78783;SDS011;68127;51.050;14.084;2024-01-15T11:08:50;8.10;;;3.63;;
78783;SDS011;68127;51.050;14.084;2024-01-15T11:11:17;9.63;;;3.55;;
78783;SDS011;68127;51.050;14.084;2024-01-15T11:13:43;7.68;;;3.88;;
78783;SDS011;68127;51.050;14.084;2024-01-15T11:16:12;8.93;;;4.32;;
78783;SDS011;68127;51.050;14.084;2024-01-15T11:19:21;6.80;;;3.40;;
78783;SDS011;68127;51.050;14.084;2024-01-15T11:21:28;9.27;;;3.97;;
78783;SDS011;68127;51.050;14.084;2024-01-15T11:23:58;7.95;;;3.17;;
78783;SDS011;68127;51.050;14.084;2024-01-15T11:29:04;9.52;;;3.63;;
78783;SDS011;68127;51.050;14.084;2024-01-15T11:34:05;7.32;;;3.75;;
78783;SDS011;68127;51.050;14.084;2024-01-15T11:37:07;8.68;;;4.13;;
78783;SDS011;68127;51.050;14.084;2024-01-15T11:41:57;9.30;;;4.10;;
78783;SDS011;68127;51.050;14.084;2024-01-15T11:44:23;11.20;;;4.57;;
78783;SDS011;68127;51.050;14.084;2024-01-15T11:47:02;11.70;;;4.68;;
78783;SDS011;68127;51.050;14.084;2024-01-15T11:52:25;10.30;;;4.55;;
78783;SDS011;68127;51.050;14.084;2024-01-15T12:00:11;7.30;;;3.53;;
78783;SDS011;68127;51.050;14.084;2024-01-15T12:02:41;7.78;;;3.40;;
78783;SDS011;68127;51.050;14.084;2024-01-15T12:05:07;9.48;;;3.70;;
78783;SDS011;68127;51.050;14.084;2024-01-15T12:07:33;11.27;;;3.80;;
78783;SDS011;68127;51.050;14.084;2024-01-15T12:09:59;11.20;;;3.92;;
78783;SDS011;68127;51.050;14.084;2024-01-15T12:12:25;8.77;;;3.67;;
78783;SDS011;68127;51.050;14.084;2024-01-15T12:14:57;8.50;;;3.58;;
78783;SDS011;68127;51.050;14.084;2024-01-15T12:17:23;8.55;;;4.07;;
78783;SDS011;68127;51.050;14.084;2024-01-15T12:19:48;9.57;;;3.53;;
78783;SDS011;68127;51.050;14.084;2024-01-15T12:22:13;9.32;;;3.70;;
78783;SDS011;68127;51.050;14.084;2024-01-15T12:24:40;9.80;;;3.88;;
78783;SDS011;68127;51.050;14.084;2024-01-15T12:27:05;6.45;;;3.58;;
78783;SDS011;68127;51.050;14.084;2024-01-15T12:29:31;7.57;;;3.33;;
78783;SDS011;68127;51.050;14.084;2024-01-15T12:31:57;8.98;;;3.90;;
78783;SDS011;68127;51.050;14.084;2024-01-15T12:34:22;15.93;;;3.60;;
78783;SDS011;68127;51.050;14.084;2024-01-15T12:36:47;8.23;;;3.95;;
78783;SDS011;68127;51.050;14.084;2024-01-15T12:39:13;8.88;;;4.30;;
78783;SDS011;68127;51.050;14.084;2024-01-15T12:41:38;10.90;;;3.53;;
78783;SDS011;68127;51.050;14.084;2024-01-15T12:44:04;10.32;;;4.40;;
78783;SDS011;68127;51.050;14.084;2024-01-15T12:46:29;9.98;;;4.20;;
78783;SDS011;68127;51.050;14.084;2024-01-15T12:48:55;8.20;;;4.05;;
78783;SDS011;68127;51.050;14.084;2024-01-15T12:51:24;9.13;;;3.85;;
78783;SDS011;68127;51.050;14.084;2024-01-15T12:53:50;8.18;;;3.60;;
78783;SDS011;68127;51.050;14.084;2024-01-15T12:56:15;10.02;;;3.85;;
78783;SDS011;68127;51.050;14.084;2024-01-15T12:58:40;7.78;;;3.88;;
78783;SDS011;68127;51.050;14.084;2024-01-15T13:01:06;11.90;;;4.40;;
78783;SDS011;68127;51.050;14.084;2024-01-15T13:03:31;8.45;;;3.85;;
78783;SDS011;68127;51.050;14.084;2024-01-15T13:05:56;8.57;;;3.95;;
78783;SDS011;68127;51.050;14.084;2024-01-15T13:08:21;10.20;;;4.15;;
78783;SDS011;68127;51.050;14.084;2024-01-15T13:10:48;8.90;;;4.45;;
78783;SDS011;68127;51.050;14.084;2024-01-15T13:13:14;9.40;;;4.35;;
78783;SDS011;68127;51.050;14.084;2024-01-15T13:15:39;11.00;;;4.90;;
78783;SDS011;68127;51.050;14.084;2024-01-15T13:18:04;11.48;;;4.70;;
78783;SDS011;68127;51.050;14.084;2024-01-15T13:20:30;11.88;;;4.72;;
78783;SDS011;68127;51.050;14.084;2024-01-15T13:22:55;19.65;;;8.00;;
78783;SDS011;68127;51.050;14.084;2024-01-15T13:25:20;13.48;;;5.10;;
78783;SDS011;68127;51.050;14.084;2024-01-15T13:27:46;11.18;;;4.68;;
78783;SDS011;68127;51.050;14.084;2024-01-15T13:30:11;12.65;;;5.53;;
78783;SDS011;68127;51.050;14.084;2024-01-15T13:32:37;11.63;;;5.40;;
78783;SDS011;68127;51.050;14.084;2024-01-15T13:35:02;11.70;;;4.90;;
78783;SDS011;68127;51.050;14.084;2024-01-15T13:37:30;14.40;;;5.30;;
78783;SDS011;68127;51.050;14.084;2024-01-15T13:39:55;9.27;;;4.57;;
78783;SDS011;68127;51.050;14.084;2024-01-15T13:42:21;8.50;;;4.03;;
78783;SDS011;68127;51.050;14.084;2024-01-15T13:44:52;10.93;;;4.65;;
78783;SDS011;68127;51.050;14.084;2024-01-15T13:47:17;9.80;;;4.70;;
78783;SDS011;68127;51.050;14.084;2024-01-15T13:49:42;10.88;;;4.60;;
78783;SDS011;68127;51.050;14.084;2024-01-15T13:52:08;11.77;;;5.05;;
78783;SDS011;68127;51.050;14.084;2024-01-15T13:54:33;10.73;;;5.05;;
78783;SDS011;68127;51.050;14.084;2024-01-15T13:56:58;11.32;;;4.63;;
78783;SDS011;68127;51.050;14.084;2024-01-15T13:59:24;14.50;;;5.35;;
78783;SDS011;68127;51.050;14.084;2024-01-15T14:01:49;12.45;;;5.07;;
78783;SDS011;68127;51.050;14.084;2024-01-15T14:04:14;9.50;;;4.13;;
78783;SDS011;68127;51.050;14.084;2024-01-15T14:06:40;11.43;;;4.85;;
78783;SDS011;68127;51.050;14.084;2024-01-15T14:09:05;10.55;;;5.07;;
78783;SDS011;68127;51.050;14.084;2024-01-15T14:11:34;11.63;;;5.72;;
78783;SDS011;68127;51.050;14.084;2024-01-15T14:14:00;12.40;;;5.07;;
78783;SDS011;68127;51.050;14.084;2024-01-15T14:16:26;12.23;;;5.72;;
78783;SDS011;68127;51.050;14.084;2024-01-15T14:18:52;10.35;;;5.35;;
78783;SDS011;68127;51.050;14.084;2024-01-15T14:21:17;14.85;;;6.05;;
78783;SDS011;68127;51.050;14.084;2024-01-15T14:23:43;13.18;;;5.35;;
78783;SDS011;68127;51.050;14.084;2024-01-15T14:26:08;10.70;;;4.97;;
78783;SDS011;68127;51.050;14.084;2024-01-15T14:28:34;10.95;;;5.15;;
78783;SDS011;68127;51.050;14.084;2024-01-15T14:30:59;13.90;;;5.47;;